createdAt,value
2019-05-09T00:01:43.988Z,991.73
2019-05-09T00:02:44.314Z,991.73
2019-05-09T00:04:36.682Z,991.74
2019-05-09T00:05:36.693Z,991.75
2019-05-09T00:07:29.605Z,991.74
2019-05-09T00:08:29.613Z,991.74
2019-05-09T00:10:38.130Z,991.73
2019-05-09T00:11:24.526Z,991.79
2019-05-09T00:13:15.438Z,991.74
2019-05-09T00:14:15.445Z,991.77
2019-05-09T00:16:08.361Z,991.78
2019-05-09T00:17:08.371Z,991.78
2019-05-09T00:19:03.350Z,991.81
2019-05-09T00:20:03.407Z,991.83
2019-05-09T00:21:54.197Z,991.82
2019-05-09T00:22:54.204Z,991.83
2019-05-09T00:24:47.112Z,991.82
2019-05-09T00:25:47.124Z,991.85
2019-05-09T00:27:41.029Z,991.84
2019-05-09T00:28:41.037Z,991.86
2019-05-09T00:30:33.950Z,991.88
2019-05-09T00:31:33.954Z,991.86
2019-05-09T00:33:26.872Z,991.89
2019-05-09T00:34:26.870Z,991.87
2019-05-09T00:36:19.783Z,991.88
2019-05-09T00:37:19.790Z,991.93
2019-05-09T00:39:13.404Z,991.89
2019-05-09T00:40:13.262Z,991.89
2019-05-09T00:42:05.629Z,991.86
2019-05-09T00:43:05.636Z,991.87
2019-05-09T00:44:58.544Z,991.86
2019-05-09T00:45:58.555Z,991.85
2019-05-09T00:47:53.414Z,991.86
2019-05-09T00:48:53.318Z,991.87
2019-05-09T00:50:44.386Z,991.85
2019-05-09T00:51:44.391Z,991.85
2019-05-09T00:53:37.295Z,991.85
2019-05-09T00:54:37.308Z,991.87
2019-05-09T00:56:30.219Z,991.88
2019-05-09T00:57:30.226Z,991.88
2019-05-09T00:59:24.152Z,991.87
2019-05-09T01:00:24.255Z,991.87
2019-05-09T01:02:16.068Z,991.86
2019-05-09T01:03:16.065Z,991.84
2019-05-09T01:05:08.974Z,991.84
2019-05-09T01:06:08.985Z,991.86
2019-05-09T01:08:04.088Z,991.90
2019-05-09T01:09:03.643Z,991.88
2019-05-09T01:11:08.499Z,991.91
2019-05-09T01:11:54.820Z,991.88
2019-05-09T01:13:47.730Z,991.87
2019-05-09T01:14:47.741Z,991.85
2019-05-09T01:16:40.654Z,991.84
2019-05-09T01:17:40.659Z,991.83
2019-05-09T01:19:33.831Z,991.83
2019-05-09T01:20:33.579Z,991.81
2019-05-09T01:22:26.493Z,991.82
2019-05-09T01:23:26.497Z,991.83
2019-05-09T01:25:19.407Z,991.80
2019-05-09T01:26:19.416Z,991.83
2019-05-09T01:28:13.969Z,991.84
2019-05-09T01:29:13.848Z,991.83
2019-05-09T01:31:05.252Z,991.80
2019-05-09T01:32:05.252Z,991.81
2019-05-09T01:33:58.162Z,991.84
2019-05-09T01:34:58.173Z,991.84
2019-05-09T01:36:51.086Z,991.85
2019-05-09T01:37:51.090Z,991.86
2019-05-09T01:39:44.143Z,991.90
2019-05-09T01:40:44.036Z,991.86
2019-05-09T01:42:36.920Z,991.83
2019-05-09T01:43:36.927Z,991.85
2019-05-09T01:45:29.833Z,991.84
2019-05-09T01:46:29.846Z,991.86
2019-05-09T01:48:23.414Z,991.87
2019-05-09T01:49:23.366Z,991.85
2019-05-09T01:51:15.678Z,991.88
2019-05-09T01:52:15.680Z,991.89
2019-05-09T01:54:08.590Z,991.89
2019-05-09T01:55:08.601Z,991.88
2019-05-09T01:57:03.314Z,991.85
2019-05-09T01:58:03.368Z,991.90
2019-05-09T01:59:54.429Z,991.91
2019-05-09T02:00:54.439Z,991.85
2019-05-09T02:02:47.351Z,991.90
2019-05-09T02:03:47.357Z,991.91
2019-05-09T02:05:40.266Z,991.84
2019-05-09T02:06:40.276Z,991.84
2019-05-09T02:08:34.486Z,991.89
2019-05-09T02:09:34.230Z,991.90
2019-05-09T02:11:39.328Z,991.89
2019-05-09T02:12:26.108Z,991.88
2019-05-09T02:14:19.019Z,991.88
2019-05-09T02:15:19.027Z,991.88
2019-05-09T02:17:13.909Z,991.83
2019-05-09T02:18:13.742Z,991.90
2019-05-09T02:20:04.859Z,991.88
2019-05-09T02:21:04.871Z,991.86
2019-05-09T02:22:57.780Z,991.88
2019-05-09T02:23:57.790Z,991.88
2019-05-09T02:25:50.691Z,991.86
2019-05-09T02:26:50.701Z,991.88
2019-05-09T02:28:43.615Z,991.87
2019-05-09T02:29:44.027Z,991.88
2019-05-09T02:31:36.534Z,991.89
2019-05-09T02:32:36.537Z,991.88
2019-05-09T02:34:29.443Z,991.86
2019-05-09T02:35:38.821Z,991.89
2019-05-09T02:37:22.368Z,991.84
2019-05-09T02:38:22.378Z,991.81
2019-05-09T02:40:18.495Z,991.84
2019-05-09T02:41:15.290Z,991.83
2019-05-09T02:43:09.978Z,991.86
2019-05-09T02:44:09.264Z,991.84
2019-05-09T02:46:01.115Z,991.85
2019-05-09T02:47:01.126Z,991.86
2019-05-09T02:48:54.039Z,991.85
2019-05-09T02:49:54.044Z,991.86
2019-05-09T02:51:48.764Z,991.83
2019-05-09T02:52:48.708Z,991.84
2019-05-09T02:54:39.883Z,991.83
2019-05-09T02:55:39.880Z,991.88
2019-05-09T02:57:32.806Z,991.88
2019-05-09T02:58:32.802Z,991.86
2019-05-09T03:00:28.597Z,991.87
2019-05-09T03:01:25.720Z,991.86
2019-05-09T03:03:19.793Z,991.90
2019-05-09T03:04:19.003Z,991.87
2019-05-09T03:06:11.552Z,991.89
2019-05-09T03:07:11.563Z,991.90
2019-05-09T03:09:04.468Z,991.95
2019-05-09T03:10:04.474Z,991.96
2019-05-09T03:11:58.959Z,991.93
2019-05-09T03:12:59.453Z,991.94
2019-05-09T03:14:50.312Z,991.97
2019-05-09T03:15:50.315Z,991.97
2019-05-09T03:17:43.230Z,991.97
2019-05-09T03:18:43.240Z,991.98
2019-05-09T03:20:39.010Z,992.00
2019-05-09T03:21:39.017Z,991.99
2019-05-09T03:23:29.058Z,992.01
2019-05-09T03:24:29.157Z,992.00
2019-05-09T03:26:21.971Z,991.98
2019-05-09T03:27:21.982Z,991.99
2019-05-09T03:29:14.909Z,992.04
2019-05-09T03:30:14.923Z,992.01
2019-05-09T03:32:09.140Z,992.01
2019-05-09T03:33:10.433Z,991.99
2019-05-09T03:35:00.731Z,992.02
2019-05-09T03:36:00.733Z,992.01
2019-05-09T03:37:53.650Z,992.03
2019-05-09T03:38:53.655Z,992.02
2019-05-09T03:40:47.670Z,992.04
2019-05-09T03:41:48.738Z,992.04
2019-05-09T03:43:39.490Z,992.03
2019-05-09T03:44:39.492Z,992.05
2019-05-09T03:46:32.397Z,992.07
2019-05-09T03:47:32.406Z,992.08
2019-05-09T03:49:25.317Z,992.05
2019-05-09T03:50:27.840Z,992.06
2019-05-09T03:52:18.233Z,992.07
2019-05-09T03:53:18.467Z,992.07
2019-05-09T03:55:11.165Z,992.06
2019-05-09T03:56:11.161Z,992.08
2019-05-09T03:58:04.070Z,992.09
2019-05-09T03:59:04.079Z,992.09
2019-05-09T04:00:57.978Z,992.06
2019-05-09T04:01:59.041Z,992.06
2019-05-09T04:03:50.935Z,992.08
2019-05-09T04:04:50.953Z,992.05
2019-05-09T04:06:43.878Z,992.08
2019-05-09T04:07:43.884Z,992.11
2019-05-09T04:09:37.777Z,992.11
2019-05-09T04:10:38.539Z,992.13
2019-05-09T04:12:29.745Z,992.15
2019-05-09T04:13:29.754Z,992.14
2019-05-09T04:15:22.705Z,992.14
2019-05-09T04:16:22.670Z,992.16
2019-05-09T04:18:17.597Z,992.18
2019-05-09T04:19:17.521Z,992.13
2019-05-09T04:21:08.565Z,992.13
2019-05-09T04:22:08.509Z,992.14
2019-05-09T04:24:01.417Z,992.14
2019-05-09T04:25:01.422Z,992.14
2019-05-09T04:27:07.822Z,992.12
2019-05-09T04:28:07.510Z,992.14
2019-05-09T04:30:00.125Z,992.14
2019-05-09T04:31:00.053Z,992.20
2019-05-09T04:32:53.053Z,992.17
2019-05-09T04:33:53.344Z,992.19
2019-05-09T04:35:47.571Z,992.17
2019-05-09T04:36:48.179Z,992.15
2019-05-09T04:38:39.962Z,992.19
2019-05-09T04:39:40.651Z,992.17
2019-05-09T04:41:32.041Z,992.20
2019-05-09T04:42:35.035Z,992.22
2019-05-09T04:44:24.864Z,992.17
2019-05-09T04:45:24.869Z,992.21
2019-05-09T04:47:17.774Z,992.22
2019-05-09T04:48:23.877Z,992.19
2019-05-09T04:50:10.695Z,992.27
2019-05-09T04:51:10.700Z,992.25
2019-05-09T04:53:03.604Z,992.28
2019-05-09T04:54:03.613Z,992.26
2019-05-09T04:55:58.052Z,992.30
2019-05-09T04:56:57.429Z,992.27
2019-05-09T04:58:49.441Z,992.29
2019-05-09T04:59:49.444Z,992.32
2019-05-09T05:01:42.376Z,992.33
2019-05-09T05:02:42.360Z,992.37
2019-05-09T05:04:37.297Z,992.36
2019-05-09T05:05:37.167Z,992.37
2019-05-09T05:07:28.819Z,992.39
2019-05-09T05:08:28.543Z,992.41
2019-05-09T05:10:21.103Z,992.44
2019-05-09T05:11:21.109Z,992.42
2019-05-09T05:13:25.795Z,992.42
2019-05-09T05:14:14.025Z,992.43
2019-05-09T05:16:08.374Z,992.44
2019-05-09T05:17:10.903Z,992.43
2019-05-09T05:18:59.860Z,992.40
2019-05-09T05:19:59.866Z,992.43
2019-05-09T05:21:52.771Z,992.42
2019-05-09T05:22:52.783Z,992.44
2019-05-09T05:24:45.700Z,992.44
2019-05-09T05:25:47.596Z,992.44
2019-05-09T05:27:38.619Z,992.49
2019-05-09T05:28:38.622Z,992.47
2019-05-09T05:30:31.538Z,992.47
2019-05-09T05:31:31.542Z,992.48
2019-05-09T05:33:24.461Z,992.48
2019-05-09T05:34:24.462Z,992.48
2019-05-09T05:36:18.120Z,992.54
2019-05-09T05:37:17.702Z,992.56
2019-05-09T05:39:10.299Z,992.57
2019-05-09T05:40:10.302Z,992.63
2019-05-09T05:42:03.217Z,992.63
2019-05-09T05:43:03.223Z,992.64
2019-05-09T05:44:58.119Z,992.64
2019-05-09T05:45:58.333Z,992.66
2019-05-09T05:47:49.059Z,992.68
2019-05-09T05:48:49.070Z,992.61
2019-05-09T05:50:41.985Z,992.63
2019-05-09T05:51:41.983Z,992.59
2019-05-09T05:53:34.895Z,992.64
2019-05-09T05:54:34.904Z,992.63
2019-05-09T05:56:28.110Z,992.68
2019-05-09T05:57:28.085Z,992.68
2019-05-09T05:59:20.740Z,992.71
2019-05-09T06:00:20.746Z,992.73
2019-05-09T06:02:13.690Z,992.73
2019-05-09T06:03:13.695Z,992.72
2019-05-09T06:05:08.509Z,992.77
2019-05-09T06:06:08.854Z,992.75
2019-05-09T06:08:00.044Z,992.80
2019-05-09T06:09:00.060Z,992.78
2019-05-09T06:10:52.984Z,992.78
2019-05-09T06:11:52.996Z,992.77
2019-05-09T06:13:56.195Z,992.76
2019-05-09T06:14:48.003Z,992.75
2019-05-09T06:16:38.852Z,992.84
2019-05-09T06:17:38.866Z,992.82
2019-05-09T06:19:31.793Z,992.78
2019-05-09T06:20:31.806Z,992.79
2019-05-09T06:22:24.725Z,992.78
2019-05-09T06:23:24.743Z,992.78
2019-05-09T06:25:20.853Z,992.80
2019-05-09T06:26:18.536Z,992.81
2019-05-09T06:28:10.609Z,992.83
2019-05-09T06:29:10.627Z,992.82
2019-05-09T06:31:03.570Z,992.84
2019-05-09T06:32:03.573Z,992.85
2019-05-09T06:33:57.808Z,992.92
2019-05-09T06:34:57.841Z,992.89
2019-05-09T06:36:49.443Z,992.98
2019-05-09T06:37:49.458Z,992.97
2019-05-09T06:39:42.389Z,992.97
2019-05-09T06:40:42.403Z,992.94
2019-05-09T06:42:37.843Z,992.92
2019-05-09T06:43:35.351Z,992.92
2019-05-09T06:45:28.280Z,992.94
2019-05-09T06:46:28.297Z,992.97
2019-05-09T06:48:21.223Z,992.99
2019-05-09T06:49:27.910Z,993.01
2019-05-09T06:51:14.175Z,993.00
2019-05-09T06:52:14.196Z,992.98
2019-05-09T06:54:08.140Z,992.96
2019-05-09T06:55:08.628Z,992.98
2019-05-09T06:57:00.078Z,992.98
2019-05-09T06:58:00.099Z,993.00
2019-05-09T06:59:53.030Z,992.98
2019-05-09T07:00:53.046Z,992.98
2019-05-09T07:02:47.915Z,993.00
2019-05-09T07:03:48.007Z,992.98
2019-05-09T07:05:38.922Z,992.95
2019-05-09T07:06:38.942Z,992.94
2019-05-09T07:08:31.873Z,992.95
2019-05-09T07:09:31.890Z,992.96
2019-05-09T07:11:24.820Z,992.93
2019-05-09T07:12:27.270Z,992.89
2019-05-09T07:14:26.711Z,992.89
2019-05-09T07:15:17.855Z,992.88
2019-05-09T07:17:10.710Z,992.86
2019-05-09T07:18:10.724Z,992.82
2019-05-09T07:20:03.653Z,992.83
2019-05-09T07:21:03.663Z,992.88
2019-05-09T07:22:58.251Z,992.86
2019-05-09T07:23:58.292Z,992.90
2019-05-09T07:25:49.528Z,992.91
2019-05-09T07:26:49.538Z,992.91
2019-05-09T07:28:42.462Z,992.90
2019-05-09T07:29:42.475Z,992.96
2019-05-09T07:31:37.741Z,992.94
2019-05-09T07:32:38.114Z,992.93
2019-05-09T07:34:28.333Z,992.88
2019-05-09T07:35:28.346Z,992.86
2019-05-09T07:37:21.283Z,992.84
2019-05-09T07:38:21.289Z,992.79
2019-05-09T07:40:14.202Z,992.79
2019-05-09T07:41:14.216Z,992.76
2019-05-09T07:43:07.839Z,992.77
2019-05-09T07:44:07.696Z,992.77
2019-05-09T07:46:00.069Z,992.77
2019-05-09T07:47:00.080Z,992.77
2019-05-09T07:48:52.992Z,992.74
2019-05-09T07:49:53.008Z,992.74
2019-05-09T07:51:47.779Z,992.75
2019-05-09T07:52:47.666Z,992.74
2019-05-09T07:54:38.859Z,992.75
2019-05-09T07:55:38.905Z,992.74
2019-05-09T07:57:31.931Z,992.74
2019-05-09T07:58:31.811Z,992.79
2019-05-09T08:00:24.719Z,992.78
2019-05-09T08:01:24.732Z,992.74
2019-05-09T08:03:18.161Z,992.73
2019-05-09T08:04:18.304Z,992.74
2019-05-09T08:06:10.659Z,992.74
2019-05-09T08:07:10.587Z,992.75
2019-05-09T08:09:03.505Z,992.73
2019-05-09T08:10:03.524Z,992.71
2019-05-09T08:11:58.519Z,992.70
2019-05-09T08:12:58.478Z,992.73
2019-05-09T08:15:06.780Z,992.74
2019-05-09T08:15:49.394Z,992.73
2019-05-09T08:17:42.318Z,992.68
2019-05-09T08:18:42.324Z,992.72
2019-05-09T08:20:35.247Z,992.70
2019-05-09T08:21:35.253Z,992.71
2019-05-09T08:23:28.179Z,992.65
2019-05-09T08:24:28.183Z,992.68
2019-05-09T08:26:21.104Z,992.67
2019-05-09T08:27:21.112Z,992.68
2019-05-09T08:29:14.030Z,992.63
2019-05-09T08:30:14.045Z,992.68
2019-05-09T08:32:07.536Z,992.70
2019-05-09T08:33:08.212Z,992.67
2019-05-09T08:34:59.906Z,992.69
2019-05-09T08:35:59.911Z,992.67
2019-05-09T08:37:52.832Z,992.68
2019-05-09T08:38:52.844Z,992.71
2019-05-09T08:40:48.420Z,992.69
2019-05-09T08:41:48.323Z,992.72
2019-05-09T08:43:38.694Z,992.73
2019-05-09T08:44:41.993Z,992.74
2019-05-09T08:46:32.621Z,992.78
2019-05-09T08:47:32.635Z,992.76
2019-05-09T08:49:25.550Z,992.72
2019-05-09T08:50:27.952Z,992.75
2019-05-09T08:52:19.925Z,992.76
2019-05-09T08:53:18.950Z,992.83
2019-05-09T08:55:11.419Z,992.75
2019-05-09T08:56:13.126Z,992.75
2019-05-09T08:58:04.369Z,992.70
2019-05-09T08:59:04.368Z,992.72
2019-05-09T09:01:03.730Z,992.68
2019-05-09T09:02:12.461Z,992.72
2019-05-09T09:03:50.312Z,992.73
2019-05-09T09:04:50.246Z,992.74
2019-05-09T09:06:43.171Z,992.72
2019-05-09T09:07:43.178Z,992.73
2019-05-09T09:09:37.895Z,992.76
2019-05-09T09:10:38.498Z,992.73
2019-05-09T09:12:34.082Z,992.76
2019-05-09T09:13:29.049Z,992.76
2019-05-09T09:15:21.968Z,992.74
2019-05-09T09:16:22.655Z,992.73
2019-05-09T09:18:14.913Z,992.67
2019-05-09T09:19:14.922Z,992.68
2019-05-09T09:21:08.231Z,992.65
2019-05-09T09:22:08.835Z,992.61
2019-05-09T09:24:00.793Z,992.62
2019-05-09T09:25:00.804Z,992.63
2019-05-09T09:26:53.736Z,992.61
2019-05-09T09:27:53.744Z,992.61
2019-05-09T09:29:48.089Z,992.59
2019-05-09T09:30:48.434Z,992.59
2019-05-09T09:32:39.609Z,992.60
2019-05-09T09:33:39.617Z,992.59
2019-05-09T09:35:32.538Z,992.56
2019-05-09T09:36:32.556Z,992.56
2019-05-09T09:38:25.482Z,992.55
2019-05-09T09:39:27.534Z,992.57
2019-05-09T09:41:18.415Z,992.58
2019-05-09T09:42:19.881Z,992.55
2019-05-09T09:44:11.352Z,992.58
2019-05-09T09:45:11.363Z,992.59
2019-05-09T09:47:04.286Z,992.54
2019-05-09T09:48:04.297Z,992.55
2019-05-09T09:49:59.506Z,992.58
2019-05-09T09:50:58.017Z,992.46
2019-05-09T09:52:50.160Z,992.49
2019-05-09T09:53:50.182Z,992.49
2019-05-09T09:55:43.092Z,992.43
2019-05-09T09:56:43.108Z,992.43
2019-05-09T09:58:37.927Z,992.51
2019-05-09T09:59:38.513Z,992.46
2019-05-09T10:01:29.080Z,992.45
2019-05-09T10:02:28.982Z,992.47
2019-05-09T10:04:24.393Z,992.48
2019-05-09T10:05:21.914Z,992.48
2019-05-09T10:07:14.841Z,992.45
2019-05-09T10:08:14.857Z,992.40
2019-05-09T10:10:07.991Z,992.42
2019-05-09T10:11:08.250Z,992.46
2019-05-09T10:13:03.866Z,992.48
2019-05-09T10:14:00.753Z,992.48
2019-05-09T10:15:53.675Z,992.45
2019-05-09T10:16:53.693Z,992.47
2019-05-09T10:18:46.621Z,992.48
2019-05-09T10:19:48.223Z,992.55
2019-05-09T10:21:39.557Z,992.55
2019-05-09T10:22:45.863Z,992.49
2019-05-09T10:24:32.506Z,992.48
2019-05-09T10:25:32.520Z,992.48
2019-05-09T10:27:25.446Z,992.52
2019-05-09T10:28:25.502Z,992.49
2019-05-09T10:30:18.383Z,992.46
2019-05-09T10:31:18.401Z,992.39
2019-05-09T10:33:11.327Z,992.49
2019-05-09T10:34:11.341Z,992.50
2019-05-09T10:36:05.020Z,992.50
2019-05-09T10:37:04.281Z,992.52
2019-05-09T10:38:58.411Z,992.52
2019-05-09T10:39:58.087Z,992.52
2019-05-09T10:41:50.143Z,992.47
2019-05-09T10:42:50.167Z,992.49
2019-05-09T10:44:43.093Z,992.48
2019-05-09T10:45:43.103Z,992.49
2019-05-09T10:47:37.757Z,992.52
2019-05-09T10:48:38.497Z,992.54
2019-05-09T10:50:34.000Z,992.58
2019-05-09T10:51:28.986Z,992.59
2019-05-09T10:53:21.907Z,992.55
2019-05-09T10:54:21.920Z,992.56
2019-05-09T10:56:14.857Z,992.59
2019-05-09T10:57:14.869Z,992.58
2019-05-09T10:59:08.064Z,992.56
2019-05-09T11:00:08.757Z,992.49
2019-05-09T11:02:00.718Z,992.53
2019-05-09T11:03:00.734Z,992.49
2019-05-09T11:04:53.664Z,992.46
2019-05-09T11:05:53.673Z,992.47
2019-05-09T11:07:46.618Z,992.48
2019-05-09T11:08:47.628Z,992.43
2019-05-09T11:10:39.995Z,992.40
2019-05-09T11:11:39.656Z,992.44
2019-05-09T11:13:32.483Z,992.43
2019-05-09T11:14:37.243Z,992.41
2019-05-09T11:16:41.283Z,992.35
2019-05-09T11:17:25.438Z,992.39
2019-05-09T11:19:18.554Z,992.32
2019-05-09T11:20:19.331Z,992.31
2019-05-09T11:22:11.301Z,992.26
2019-05-09T11:23:11.316Z,992.20
2019-05-09T11:25:04.247Z,992.27
2019-05-09T11:26:04.256Z,992.21
2019-05-09T11:28:09.878Z,992.29
2019-05-09T11:28:58.733Z,992.28
2019-05-09T11:30:51.108Z,992.30
2019-05-09T11:31:51.130Z,992.25
2019-05-09T11:33:44.056Z,992.30
2019-05-09T11:34:44.067Z,992.24
2019-05-09T11:36:37.943Z,992.30
2019-05-09T11:37:38.357Z,992.33
2019-05-09T11:39:36.619Z,992.34
2019-05-09T11:40:29.953Z,992.32
2019-05-09T11:42:22.857Z,992.31
2019-05-09T11:43:22.876Z,992.36
2019-05-09T11:45:17.928Z,992.31
2019-05-09T11:46:18.052Z,992.33
2019-05-09T11:48:08.731Z,992.40
2019-05-09T11:49:08.776Z,992.39
2019-05-09T11:51:01.674Z,992.42
2019-05-09T11:52:01.689Z,992.47
2019-05-09T11:53:54.611Z,992.50
2019-05-09T11:54:54.623Z,992.49
2019-05-09T11:56:48.160Z,992.55
2019-05-09T11:57:48.527Z,992.57
2019-05-09T11:59:40.487Z,992.59
2019-05-09T12:00:40.505Z,992.60
2019-05-09T12:02:33.495Z,992.54
2019-05-09T12:03:33.511Z,992.59
2019-05-09T12:05:28.561Z,992.60
2019-05-09T12:06:29.001Z,992.58
2019-05-09T12:08:19.376Z,992.58
2019-05-09T12:09:19.394Z,992.62
2019-05-09T12:11:12.322Z,992.58
2019-05-09T12:12:12.339Z,992.58
2019-05-09T12:14:05.761Z,992.54
2019-05-09T12:15:05.769Z,992.53
2019-05-09T12:16:58.690Z,992.55
2019-05-09T12:18:05.366Z,992.48
2019-05-09T12:20:08.803Z,992.49
2019-05-09T12:20:51.654Z,992.51
2019-05-09T12:22:44.576Z,992.52
2019-05-09T12:23:44.595Z,992.49
2019-05-09T12:25:38.637Z,992.55
2019-05-09T12:26:39.136Z,992.53
2019-05-09T12:28:30.456Z,992.59
2019-05-09T12:29:30.475Z,992.56
2019-05-09T12:31:23.417Z,992.65
2019-05-09T12:32:23.434Z,992.65
2019-05-09T12:34:18.895Z,992.68
2019-05-09T12:35:18.996Z,992.70
2019-05-09T12:37:09.589Z,992.67
2019-05-09T12:38:09.314Z,992.70
2019-05-09T12:40:02.243Z,992.71
2019-05-09T12:41:02.258Z,992.69
2019-05-09T12:42:55.180Z,992.68
2019-05-09T12:43:57.311Z,992.71
2019-05-09T12:45:48.132Z,992.71
2019-05-09T12:46:48.988Z,992.70
2019-05-09T12:48:41.067Z,992.72
2019-05-09T12:49:41.087Z,992.72
2019-05-09T12:51:34.017Z,992.69
2019-05-09T12:52:34.060Z,992.70
2019-05-09T12:54:27.920Z,992.69
2019-05-09T12:55:27.611Z,992.66
2019-05-09T12:57:19.899Z,992.70
2019-05-09T12:58:19.918Z,992.69
2019-05-09T13:00:12.855Z,992.70
2019-05-09T13:01:12.863Z,992.71
2019-05-09T13:03:08.033Z,992.72
2019-05-09T13:04:09.495Z,992.72
2019-05-09T13:05:58.749Z,992.68
2019-05-09T13:06:58.994Z,992.77
2019-05-09T13:08:51.742Z,992.76
2019-05-09T13:09:52.669Z,992.78
2019-05-09T13:11:44.627Z,992.79
2019-05-09T13:12:44.641Z,992.76
2019-05-09T13:14:38.080Z,992.75
2019-05-09T13:15:38.419Z,992.75
2019-05-09T13:17:30.513Z,992.82
2019-05-09T13:18:30.534Z,992.81
2019-05-09T13:20:23.467Z,992.87
2019-05-09T13:21:23.478Z,992.84
2019-05-09T13:23:17.881Z,992.83
2019-05-09T13:24:19.488Z,992.87
2019-05-09T13:26:09.358Z,992.84
2019-05-09T13:27:09.384Z,992.84
2019-05-09T13:29:02.299Z,992.82
2019-05-09T13:30:02.525Z,992.83
2019-05-09T13:31:57.572Z,992.86
2019-05-09T13:32:55.261Z,992.84
2019-05-09T13:34:48.810Z,992.89
2019-05-09T13:35:48.720Z,992.87
2019-05-09T13:37:41.159Z,992.89
2019-05-09T13:38:56.012Z,992.90
2019-05-09T13:40:34.112Z,992.88
2019-05-09T13:41:34.118Z,992.89
2019-05-09T13:43:28.097Z,992.94
2019-05-09T13:44:27.780Z,992.91
2019-05-09T13:46:19.998Z,992.92
2019-05-09T13:47:20.006Z,992.89
2019-05-09T13:49:15.630Z,992.87
2019-05-09T13:50:12.944Z,992.92
2019-05-09T13:52:05.966Z,992.92
2019-05-09T13:53:07.603Z,992.97
2019-05-09T13:54:58.814Z,992.94
2019-05-09T13:55:58.826Z,992.97
2019-05-09T13:57:51.748Z,992.98
2019-05-09T13:58:51.768Z,993.02
2019-05-09T14:00:56.779Z,992.94
2019-05-09T14:01:44.707Z,992.97
2019-05-09T14:03:38.767Z,993.01
2019-05-09T14:04:39.562Z,993.03
2019-05-09T14:06:30.578Z,993.04
2019-05-09T14:07:30.595Z,993.08
2019-05-09T14:09:23.514Z,993.08
2019-05-09T14:10:23.529Z,993.08
2019-05-09T14:12:17.590Z,993.10
2019-05-09T14:13:18.926Z,993.11
2019-05-09T14:15:09.411Z,993.13
2019-05-09T14:16:20.149Z,993.14
2019-05-09T14:18:02.338Z,993.14
2019-05-09T14:19:24.450Z,993.18
2019-05-09T14:20:57.264Z,993.22
2019-05-09T14:21:58.288Z,993.19
2019-05-09T14:24:03.471Z,993.17
2019-05-09T14:24:48.491Z,993.19
2019-05-09T14:26:41.165Z,993.20
2019-05-09T14:27:41.175Z,993.17
2019-05-09T14:29:34.098Z,993.22
2019-05-09T14:30:34.117Z,993.25
2019-05-09T14:32:27.043Z,993.29
2019-05-09T14:33:29.495Z,993.30
2019-05-09T14:35:19.978Z,993.31
2019-05-09T14:36:19.997Z,993.35
2019-05-09T14:38:12.933Z,993.31
2019-05-09T14:39:12.948Z,993.38
2019-05-09T14:41:07.803Z,993.43
2019-05-09T14:42:09.064Z,993.44
2019-05-09T14:43:59.861Z,993.41
2019-05-09T14:44:58.828Z,993.41
2019-05-09T14:46:51.754Z,993.43
2019-05-09T14:47:51.771Z,993.43
2019-05-09T14:49:44.895Z,993.44
2019-05-09T14:50:44.718Z,993.42
2019-05-09T14:52:38.421Z,993.46
2019-05-09T14:53:39.006Z,993.44
2019-05-09T14:55:30.585Z,993.44
2019-05-09T14:56:30.598Z,993.44
2019-05-09T14:58:23.528Z,993.48
2019-05-09T14:59:23.541Z,993.49
2019-05-09T15:01:19.444Z,993.49
2019-05-09T15:02:17.939Z,993.51
2019-05-09T15:04:09.410Z,993.52
2019-05-09T15:05:09.802Z,993.55
2019-05-09T15:07:03.120Z,993.61
2019-05-09T15:08:02.367Z,993.58
2019-05-09T15:09:56.850Z,993.61
2019-05-09T15:10:58.031Z,993.61
2019-05-09T15:12:48.749Z,993.59
2019-05-09T15:13:48.256Z,993.60
2019-05-09T15:15:41.176Z,993.60
2019-05-09T15:16:41.198Z,993.59
2019-05-09T15:18:34.127Z,993.62
2019-05-09T15:19:34.138Z,993.63
2019-05-09T15:21:27.076Z,993.66
2019-05-09T15:22:28.520Z,993.68
2019-05-09T15:24:20.053Z,993.68
2019-05-09T15:25:20.932Z,993.67
2019-05-09T15:27:12.957Z,993.70
2019-05-09T15:28:12.969Z,993.68
2019-05-09T15:30:05.928Z,993.74
2019-05-09T15:31:08.693Z,993.74
2019-05-09T15:32:58.851Z,993.69
2019-05-09T15:33:58.862Z,993.74
2019-05-09T15:35:51.803Z,993.69
2019-05-09T15:36:51.832Z,993.73
2019-05-09T15:38:44.756Z,993.71
2019-05-09T15:39:44.779Z,993.74
2019-05-09T15:41:38.483Z,993.73
2019-05-09T15:42:39.022Z,993.72
2019-05-09T15:44:30.625Z,993.71
2019-05-09T15:45:30.644Z,993.72
2019-05-09T15:47:23.575Z,993.71
2019-05-09T15:48:23.587Z,993.73
2019-05-09T15:50:22.533Z,993.76
2019-05-09T15:51:18.008Z,993.76
2019-05-09T15:53:09.458Z,993.78
2019-05-09T15:54:09.468Z,993.80
2019-05-09T15:56:02.443Z,993.82
2019-05-09T15:57:02.408Z,993.81
2019-05-09T15:58:57.856Z,993.82
2019-05-09T15:59:55.351Z,993.84
2019-05-09T16:01:49.127Z,993.79
2019-05-09T16:02:48.729Z,993.79
2019-05-09T16:04:41.322Z,993.80
2019-05-09T16:05:41.340Z,993.78
2019-05-09T16:07:37.383Z,993.84
2019-05-09T16:08:37.892Z,993.84
2019-05-09T16:10:28.404Z,993.83
2019-05-09T16:11:28.629Z,993.87
2019-05-09T16:13:21.236Z,993.87
2019-05-09T16:14:21.183Z,993.85
2019-05-09T16:16:14.082Z,993.88
2019-05-09T16:17:14.099Z,993.90
2019-05-09T16:19:08.931Z,993.90
2019-05-09T16:20:08.429Z,993.92
2019-05-09T16:22:01.919Z,993.94
2019-05-09T16:22:59.987Z,993.95
2019-05-09T16:24:52.902Z,993.91
2019-05-09T16:25:52.920Z,993.92
2019-05-09T16:27:48.272Z,993.92
2019-05-09T16:28:48.587Z,993.93
2019-05-09T16:30:38.779Z,993.92
2019-05-09T16:31:39.075Z,993.95
2019-05-09T16:33:31.723Z,993.95
2019-05-09T16:34:31.735Z,993.90
2019-05-09T16:36:24.683Z,993.99
2019-05-09T16:37:24.675Z,993.96
2019-05-09T16:39:18.028Z,993.98
2019-05-09T16:40:17.904Z,993.98
2019-05-09T16:42:10.539Z,993.99
2019-05-09T16:43:10.548Z,993.97
2019-05-09T16:45:03.515Z,993.98
2019-05-09T16:46:03.486Z,993.97
2019-05-09T16:47:57.532Z,993.99
2019-05-09T16:48:58.098Z,993.97
2019-05-09T16:51:00.408Z,993.97
2019-05-09T16:51:49.365Z,993.99
2019-05-09T16:53:42.296Z,993.96
2019-05-09T16:54:42.304Z,993.95
2019-05-09T16:56:37.918Z,993.95
2019-05-09T16:57:37.565Z,993.94
2019-05-09T16:59:28.278Z,993.94
2019-05-09T17:00:28.178Z,993.96
2019-05-09T17:02:24.673Z,993.96
2019-05-09T17:03:21.121Z,993.99
2019-05-09T17:05:14.036Z,994.03
2019-05-09T17:06:14.060Z,994.05
2019-05-09T17:08:08.197Z,994.04
2019-05-09T17:09:08.427Z,994.06
2019-05-09T17:10:59.911Z,994.04
2019-05-09T17:11:59.928Z,994.08
2019-05-09T17:13:52.852Z,994.10
2019-05-09T17:14:52.875Z,994.09
2019-05-09T17:16:48.100Z,994.12
2019-05-09T17:17:47.658Z,994.08
2019-05-09T17:19:38.785Z,994.12
2019-05-09T17:20:38.799Z,994.08
2019-05-09T17:22:31.719Z,994.11
2019-05-09T17:23:31.789Z,994.08
2019-05-09T17:25:24.663Z,994.12
2019-05-09T17:26:24.678Z,994.09
2019-05-09T17:28:18.592Z,994.13
2019-05-09T17:29:18.709Z,994.15
2019-05-09T17:31:11.524Z,994.16
2019-05-09T17:32:11.546Z,994.16
2019-05-09T17:34:04.961Z,994.17
2019-05-09T17:35:04.976Z,994.18
2019-05-09T17:36:57.896Z,994.21
2019-05-09T17:37:57.925Z,994.24
2019-05-09T17:39:50.843Z,994.30
2019-05-09T17:40:50.855Z,994.30
2019-05-09T17:42:43.902Z,994.33
2019-05-09T17:43:43.794Z,994.32
2019-05-09T17:45:39.559Z,994.36
2019-05-09T17:46:38.557Z,994.37
2019-05-09T17:48:29.654Z,994.36
2019-05-09T17:49:29.665Z,994.37
2019-05-09T17:51:33.043Z,994.39
2019-05-09T17:52:22.606Z,994.41
2019-05-09T17:54:15.528Z,994.38
2019-05-09T17:55:17.999Z,994.39
2019-05-09T17:57:08.455Z,994.37
2019-05-09T17:58:08.996Z,994.40
2019-05-09T18:00:01.452Z,994.43